sensor_id;sensor_type;location;lat;lon;timestamp;pressure;altitude;pressure_sealevel;temperature;humidity
72285;BME280;60220;53.552;10.092;2022-11-20T00:01:32;100975.94;;;3.45;67.80
72285;BME280;60220;53.552;10.092;2022-11-20T00:03:58;100977.16;;;3.64;66.71
72285;BME280;60220;53.552;10.092;2022-11-20T00:06:27;100974.75;;;3.75;67.20
72285;BME280;60220;53.552;10.092;2022-11-20T00:08:55;100973.41;;;3.49;68.71
72285;BME280;60220;53.552;10.092;2022-11-20T00:11:24;100970.31;;;3.69;68.42
72285;BME280;60220;53.552;10.092;2022-11-20T00:13:53;100973.91;;;3.76;67.39
72285;BME280;60220;53.552;10.092;2022-11-20T00:16:21;100973.03;;;3.75;67.65
72285;BME280;60220;53.552;10.092;2022-11-20T00:18:49;100976.09;;;3.55;68.19
72285;BME280;60220;53.552;10.092;2022-11-20T00:21:19;100971.56;;;3.89;67.10
72285;BME280;60220;53.552;10.092;2022-11-20T00:23:48;100966.16;;;3.77;67.79
72285;BME280;60220;53.552;10.092;2022-11-20T00:26:17;100976.22;;;3.61;67.58
72285;BME280;60220;53.552;10.092;2022-11-20T00:28:49;100976.38;;;3.70;66.90
72285;BME280;60220;53.552;10.092;2022-11-20T00:31:16;100967.84;;;3.75;66.72
72285;BME280;60220;53.552;10.092;2022-11-20T00:33:43;100972.19;;;3.76;67.83
72285;BME280;60220;53.552;10.092;2022-11-20T00:36:12;100968.50;;;3.19;69.52
72285;BME280;60220;53.552;10.092;2022-11-20T00:38:39;100972.44;;;3.45;68.66
72285;BME280;60220;53.552;10.092;2022-11-20T00:41:11;100968.19;;;3.95;67.58
72285;BME280;60220;53.552;10.092;2022-11-20T00:43:41;100969.19;;;4.02;67.79
72285;BME280;60220;53.552;10.092;2022-11-20T00:46:09;100962.84;;;3.86;67.51
72285;BME280;60220;53.552;10.092;2022-11-20T00:48:37;100956.41;;;4.15;67.22
72285;BME280;60220;53.552;10.092;2022-11-20T00:51:04;100962.03;;;3.88;67.46
72285;BME280;60220;53.552;10.092;2022-11-20T00:53:33;100958.28;;;4.24;66.56
72285;BME280;60220;53.552;10.092;2022-11-20T00:56:01;100957.41;;;3.74;68.20
72285;BME280;60220;53.552;10.092;2022-11-20T00:58:31;100952.19;;;3.71;69.47
72285;BME280;60220;53.552;10.092;2022-11-20T01:01:01;100957.28;;;3.66;69.40
72285;BME280;60220;53.552;10.092;2022-11-20T01:03:31;100960.69;;;3.64;68.22
72285;BME280;60220;53.552;10.092;2022-11-20T01:06:02;100953.34;;;3.86;67.88
72285;BME280;60220;53.552;10.092;2022-11-20T01:08:30;100956.50;;;3.70;68.10
72285;BME280;60220;53.552;10.092;2022-11-20T01:11:00;100950.03;;;3.47;69.76
72285;BME280;60220;53.552;10.092;2022-11-20T01:13:30;100944.53;;;3.78;68.49
72285;BME280;60220;53.552;10.092;2022-11-20T01:16:06;100949.97;;;3.94;67.54
72285;BME280;60220;53.552;10.092;2022-11-20T01:18:33;100945.03;;;3.59;69.42
72285;BME280;60220;53.552;10.092;2022-11-20T01:21:05;100957.06;;;3.54;70.24
72285;BME280;60220;53.552;10.092;2022-11-20T01:23:33;100956.81;;;3.40;70.06
72285;BME280;60220;53.552;10.092;2022-11-20T01:26:03;100952.19;;;3.26;71.60
72285;BME280;60220;53.552;10.092;2022-11-20T01:28:35;100942.44;;;3.14;70.56
72285;BME280;60220;53.552;10.092;2022-11-20T01:31:10;100936.50;;;3.20;71.65
72285;BME280;60220;53.552;10.092;2022-11-20T01:33:37;100934.66;;;3.58;70.99
72285;BME280;60220;53.552;10.092;2022-11-20T01:36:07;100929.25;;;3.47;71.12
72285;BME280;60220;53.552;10.092;2022-11-20T01:38:34;100935.00;;;3.31;70.59
72285;BME280;60220;53.552;10.092;2022-11-20T01:41:01;100920.44;;;2.95;71.99
72285;BME280;60220;53.552;10.092;2022-11-20T01:43:28;100919.84;;;3.07;72.41
72285;BME280;60220;53.552;10.092;2022-11-20T01:46:05;100916.25;;;3.45;72.26
72285;BME280;60220;53.552;10.092;2022-11-20T01:48:36;100917.22;;;3.51;71.48
72285;BME280;60220;53.552;10.092;2022-11-20T01:51:13;100920.75;;;3.11;73.38
72285;BME280;60220;53.552;10.092;2022-11-20T01:53:46;100919.53;;;2.92;74.03
72285;BME280;60220;53.552;10.092;2022-11-20T01:56:16;100918.28;;;3.17;72.83
72285;BME280;60220;53.552;10.092;2022-11-20T01:58:51;100919.38;;;2.86;74.16
72285;BME280;60220;53.552;10.092;2022-11-20T02:01:22;100917.91;;;2.97;74.39
72285;BME280;60220;53.552;10.092;2022-11-20T02:03:50;100914.19;;;3.29;77.60
72285;BME280;60220;53.552;10.092;2022-11-20T02:06:22;100911.81;;;3.38;74.82
72285;BME280;60220;53.552;10.092;2022-11-20T02:08:59;100908.41;;;3.42;75.66
72285;BME280;60220;53.552;10.092;2022-11-20T02:11:29;100902.47;;;3.48;77.00
72285;BME280;60220;53.552;10.092;2022-11-20T02:13:57;100904.38;;;3.60;75.53
72285;BME280;60220;53.552;10.092;2022-11-20T02:16:29;100906.28;;;3.68;75.03
72285;BME280;60220;53.552;10.092;2022-11-20T02:18:59;100909.47;;;3.52;75.40
72285;BME280;60220;53.552;10.092;2022-11-20T02:21:34;100900.84;;;3.53;75.27
72285;BME280;60220;53.552;10.092;2022-11-20T02:24:07;100901.06;;;3.67;74.80
72285;BME280;60220;53.552;10.092;2022-11-20T02:26:46;100890.75;;;3.71;75.00
72285;BME280;60220;53.552;10.092;2022-11-20T02:29:23;100893.44;;;3.28;75.92
72285;BME280;60220;53.552;10.092;2022-11-20T02:31:55;100890.44;;;3.53;74.61
72285;BME280;60220;53.552;10.092;2022-11-20T02:34:23;100891.47;;;3.64;74.12
72285;BME280;60220;53.552;10.092;2022-11-20T02:36:55;100880.34;;;3.68;75.11
72285;BME280;60220;53.552;10.092;2022-11-20T02:39:25;100884.38;;;3.53;74.51
72285;BME280;60220;53.552;10.092;2022-11-20T02:41:54;100884.53;;;3.62;73.61
72285;BME280;60220;53.552;10.092;2022-11-20T02:44:24;100888.34;;;3.34;74.08
72285;BME280;60220;53.552;10.092;2022-11-20T02:46:56;100885.94;;;3.44;74.19
72285;BME280;60220;53.552;10.092;2022-11-20T02:49:25;100885.09;;;3.45;73.25
72285;BME280;60220;53.552;10.092;2022-11-20T02:51:56;100880.06;;;3.53;73.13
72285;BME280;60220;53.552;10.092;2022-11-20T02:54:30;100872.63;;;3.74;73.83
72285;BME280;60220;53.552;10.092;2022-11-20T02:57:02;100866.38;;;3.62;72.87
72285;BME280;60220;53.552;10.092;2022-11-20T02:59:38;100866.59;;;3.75;72.93
72285;BME280;60220;53.552;10.092;2022-11-20T03:02:18;100874.53;;;3.35;74.38
72285;BME280;60220;53.552;10.092;2022-11-20T03:04:45;100860.25;;;3.58;73.99
72285;BME280;60220;53.552;10.092;2022-11-20T03:07:18;100862.84;;;3.58;74.49
72285;BME280;60220;53.552;10.092;2022-11-20T03:09:52;100863.31;;;3.36;74.51
72285;BME280;60220;53.552;10.092;2022-11-20T03:12:18;100867.59;;;3.34;73.24
72285;BME280;60220;53.552;10.092;2022-11-20T03:14:51;100862.19;;;3.71;74.18
72285;BME280;60220;53.552;10.092;2022-11-20T03:17:17;100871.25;;;3.45;74.20
72285;BME280;60220;53.552;10.092;2022-11-20T03:19:44;100866.44;;;3.66;73.64
72285;BME280;60220;53.552;10.092;2022-11-20T03:22:10;100875.03;;;3.64;74.06
72285;BME280;60220;53.552;10.092;2022-11-20T03:24:37;100869.56;;;3.47;73.52
72285;BME280;60220;53.552;10.092;2022-11-20T03:27:06;100866.41;;;3.63;72.75
72285;BME280;60220;53.552;10.092;2022-11-20T03:29:33;100868.44;;;3.31;74.65
72285;BME280;60220;53.552;10.092;2022-11-20T03:32:01;100875.59;;;3.46;73.05
72285;BME280;60220;53.552;10.092;2022-11-20T03:34:31;100868.22;;;3.70;72.89
72285;BME280;60220;53.552;10.092;2022-11-20T03:36:58;100873.72;;;3.37;73.01
72285;BME280;60220;53.552;10.092;2022-11-20T03:39:27;100864.38;;;3.47;73.66
72285;BME280;60220;53.552;10.092;2022-11-20T03:41:57;100860.03;;;3.46;73.00
72285;BME280;60220;53.552;10.092;2022-11-20T03:44:25;100864.50;;;3.53;72.67
72285;BME280;60220;53.552;10.092;2022-11-20T03:46:54;100860.06;;;3.49;73.74
72285;BME280;60220;53.552;10.092;2022-11-20T03:49:23;100860.88;;;3.45;74.24
72285;BME280;60220;53.552;10.092;2022-11-20T03:51:50;100860.81;;;3.40;73.19
72285;BME280;60220;53.552;10.092;2022-11-20T03:54:19;100851.03;;;3.26;73.12
72285;BME280;60220;53.552;10.092;2022-11-20T03:56:45;100854.25;;;3.13;73.19
72285;BME280;60220;53.552;10.092;2022-11-20T03:59:12;100848.69;;;3.41;74.20
72285;BME280;60220;53.552;10.092;2022-11-20T04:01:40;100841.91;;;3.49;73.75
72285;BME280;60220;53.552;10.092;2022-11-20T04:04:07;100844.69;;;3.60;73.22
72285;BME280;60220;53.552;10.092;2022-11-20T04:06:35;100841.88;;;3.46;73.36
72285;BME280;60220;53.552;10.092;2022-11-20T04:09:09;100834.81;;;3.39;72.59
72285;BME280;60220;53.552;10.092;2022-11-20T04:11:39;100834.94;;;3.45;72.71
72285;BME280;60220;53.552;10.092;2022-11-20T04:14:12;100854.47;;;3.25;73.69
72285;BME280;60220;53.552;10.092;2022-11-20T04:16:41;100837.53;;;3.45;73.25
72285;BME280;60220;53.552;10.092;2022-11-20T04:19:16;100847.06;;;3.46;73.41
72285;BME280;60220;53.552;10.092;2022-11-20T04:21:55;100845.19;;;3.39;73.32
72285;BME280;60220;53.552;10.092;2022-11-20T04:24:29;100828.94;;;3.49;73.38
72285;BME280;60220;53.552;10.092;2022-11-20T04:27:03;100832.25;;;3.40;73.76
72285;BME280;60220;53.552;10.092;2022-11-20T04:29:31;100832.38;;;3.46;72.81
72285;BME280;60220;53.552;10.092;2022-11-20T04:32:03;100830.06;;;3.63;72.78
72285;BME280;60220;53.552;10.092;2022-11-20T04:34:34;100827.25;;;3.51;73.36
72285;BME280;60220;53.552;10.092;2022-11-20T04:37:06;100833.34;;;3.53;72.97
72285;BME280;60220;53.552;10.092;2022-11-20T04:39:32;100827.91;;;3.38;73.71
72285;BME280;60220;53.552;10.092;2022-11-20T04:41:59;100831.91;;;3.70;73.22
72285;BME280;60220;53.552;10.092;2022-11-20T04:44:43;100825.03;;;3.72;73.15
72285;BME280;60220;53.552;10.092;2022-11-20T04:47:13;100828.38;;;3.67;72.54
72285;BME280;60220;53.552;10.092;2022-11-20T04:49:41;100821.16;;;3.49;73.23
72285;BME280;60220;53.552;10.092;2022-11-20T04:52:08;100828.94;;;3.49;73.99
72285;BME280;60220;53.552;10.092;2022-11-20T04:54:36;100814.28;;;3.51;73.71
72285;BME280;60220;53.552;10.092;2022-11-20T04:57:06;100821.81;;;3.36;73.52
72285;BME280;60220;53.552;10.092;2022-11-20T04:59:33;100818.53;;;3.46;73.31
72285;BME280;60220;53.552;10.092;2022-11-20T05:02:02;100823.47;;;3.83;72.85
72285;BME280;60220;53.552;10.092;2022-11-20T05:04:34;100818.19;;;3.77;73.32
72285;BME280;60220;53.552;10.092;2022-11-20T05:07:02;100819.84;;;3.24;73.40
72285;BME280;60220;53.552;10.092;2022-11-20T05:09:33;100814.50;;;3.63;72.79
72285;BME280;60220;53.552;10.092;2022-11-20T05:12:03;100814.31;;;3.54;73.08
72285;BME280;60220;53.552;10.092;2022-11-20T05:14:33;100808.34;;;3.58;73.13
72285;BME280;60220;53.552;10.092;2022-11-20T05:17:02;100803.34;;;3.70;72.28
72285;BME280;60220;53.552;10.092;2022-11-20T05:19:30;100802.41;;;3.65;72.44
72285;BME280;60220;53.552;10.092;2022-11-20T05:22:01;100803.69;;;3.39;73.04
72285;BME280;60220;53.552;10.092;2022-11-20T05:24:28;100798.34;;;3.84;72.66
72285;BME280;60220;53.552;10.092;2022-11-20T05:26:55;100797.09;;;3.59;72.98
72285;BME280;60220;53.552;10.092;2022-11-20T05:29:24;100793.91;;;3.75;72.21
72285;BME280;60220;53.552;10.092;2022-11-20T05:31:50;100789.03;;;3.41;73.42
72285;BME280;60220;53.552;10.092;2022-11-20T05:34:20;100792.22;;;3.79;72.13
72285;BME280;60220;53.552;10.092;2022-11-20T05:36:55;100791.91;;;3.59;72.23
72285;BME280;60220;53.552;10.092;2022-11-20T05:39:25;100797.09;;;3.59;73.84
72285;BME280;60220;53.552;10.092;2022-11-20T05:41:54;100787.88;;;3.76;72.93
72285;BME280;60220;53.552;10.092;2022-11-20T05:44:35;100783.00;;;3.42;72.94
72285;BME280;60220;53.552;10.092;2022-11-20T05:47:02;100783.84;;;3.41;72.22
72285;BME280;60220;53.552;10.092;2022-11-20T05:49:28;100787.28;;;3.40;74.05
72285;BME280;60220;53.552;10.092;2022-11-20T05:51:59;100774.72;;;3.15;74.58
72285;BME280;60220;53.552;10.092;2022-11-20T05:54:26;100779.97;;;3.16;74.34
72285;BME280;60220;53.552;10.092;2022-11-20T05:56:55;100773.19;;;3.26;73.90
72285;BME280;60220;53.552;10.092;2022-11-20T05:59:24;100775.66;;;3.17;74.45
72285;BME280;60220;53.552;10.092;2022-11-20T06:01:50;100777.34;;;3.67;73.59
72285;BME280;60220;53.552;10.092;2022-11-20T06:04:34;100775.88;;;3.30;73.40
72285;BME280;60220;53.552;10.092;2022-11-20T06:07:14;100771.25;;;3.14;74.25
72285;BME280;60220;53.552;10.092;2022-11-20T06:09:51;100771.09;;;3.05;74.48
72285;BME280;60220;53.552;10.092;2022-11-20T06:12:17;100777.44;;;3.21;73.88
72285;BME280;60220;53.552;10.092;2022-11-20T06:14:44;100773.47;;;2.91;73.87
72285;BME280;60220;53.552;10.092;2022-11-20T06:17:13;100770.22;;;3.04;74.05
72285;BME280;60220;53.552;10.092;2022-11-20T06:19:40;100770.50;;;3.20;73.53
72285;BME280;60220;53.552;10.092;2022-11-20T06:22:11;100778.41;;;3.26;73.54
72285;BME280;60220;53.552;10.092;2022-11-20T06:24:48;100772.06;;;3.09;75.89
72285;BME280;60220;53.552;10.092;2022-11-20T06:27:15;100785.28;;;3.24;75.06
72285;BME280;60220;53.552;10.092;2022-11-20T06:29:42;100783.81;;;3.39;74.02
72285;BME280;60220;53.552;10.092;2022-11-20T06:32:11;100778.78;;;3.50;73.10
72285;BME280;60220;53.552;10.092;2022-11-20T06:34:48;100781.69;;;3.68;73.00
72285;BME280;60220;53.552;10.092;2022-11-20T06:37:18;100773.25;;;3.83;70.89
72285;BME280;60220;53.552;10.092;2022-11-20T06:39:46;100775.50;;;3.60;73.19
72285;BME280;60220;53.552;10.092;2022-11-20T06:42:21;100769.78;;;3.27;74.72
72285;BME280;60220;53.552;10.092;2022-11-20T06:44:52;100769.13;;;3.38;75.14
72285;BME280;60220;53.552;10.092;2022-11-20T06:47:19;100777.69;;;3.36;74.95
72285;BME280;60220;53.552;10.092;2022-11-20T06:49:51;100775.94;;;3.35;74.80
72285;BME280;60220;53.552;10.092;2022-11-20T06:52:19;100774.69;;;3.63;71.79
72285;BME280;60220;53.552;10.092;2022-11-20T06:54:45;100765.72;;;3.44;73.87
72285;BME280;60220;53.552;10.092;2022-11-20T06:57:12;100765.69;;;3.41;73.64
72285;BME280;60220;53.552;10.092;2022-11-20T06:59:41;100763.63;;;3.22;73.75
72285;BME280;60220;53.552;10.092;2022-11-20T07:02:09;100762.88;;;3.27;73.49
72285;BME280;60220;53.552;10.092;2022-11-20T07:04:36;100763.97;;;3.41;73.29
72285;BME280;60220;53.552;10.092;2022-11-20T07:07:02;100768.41;;;3.49;72.51
72285;BME280;60220;53.552;10.092;2022-11-20T07:09:30;100773.84;;;3.65;73.00
72285;BME280;60220;53.552;10.092;2022-11-20T07:11:59;100769.69;;;3.76;71.64
72285;BME280;60220;53.552;10.092;2022-11-20T07:14:26;100768.91;;;3.82;70.32
72285;BME280;60220;53.552;10.092;2022-11-20T07:16:54;100773.03;;;3.69;70.83
72285;BME280;60220;53.552;10.092;2022-11-20T07:19:21;100773.78;;;3.10;73.32
72285;BME280;60220;53.552;10.092;2022-11-20T07:21:50;100766.47;;;3.37;73.32
72285;BME280;60220;53.552;10.092;2022-11-20T07:24:16;100768.97;;;3.31;74.18
72285;BME280;60220;53.552;10.092;2022-11-20T07:26:47;100769.53;;;3.15;73.81
72285;BME280;60220;53.552;10.092;2022-11-20T07:29:14;100769.13;;;3.40;73.09
72285;BME280;60220;53.552;10.092;2022-11-20T07:31:43;100766.41;;;3.34;72.32
72285;BME280;60220;53.552;10.092;2022-11-20T07:34:10;100763.78;;;3.31;72.71
72285;BME280;60220;53.552;10.092;2022-11-20T07:36:37;100767.22;;;3.30;72.42
72285;BME280;60220;53.552;10.092;2022-11-20T07:39:04;100761.16;;;3.83;70.79
72285;BME280;60220;53.552;10.092;2022-11-20T07:41:30;100758.97;;;3.55;72.21
72285;BME280;60220;53.552;10.092;2022-11-20T07:44:01;100769.34;;;3.54;72.02
72285;BME280;60220;53.552;10.092;2022-11-20T07:46:27;100770.91;;;4.01;70.51
72285;BME280;60220;53.552;10.092;2022-11-20T07:48:54;100770.88;;;2.91;72.88
72285;BME280;60220;53.552;10.092;2022-11-20T07:51:21;100778.97;;;2.63;74.93
72285;BME280;60220;53.552;10.092;2022-11-20T07:53:50;100773.47;;;2.91;74.14
72285;BME280;60220;53.552;10.092;2022-11-20T07:56:17;100778.13;;;3.11;75.26
72285;BME280;60220;53.552;10.092;2022-11-20T07:58:43;100778.19;;;2.67;74.78
72285;BME280;60220;53.552;10.092;2022-11-20T08:01:11;100770.91;;;2.94;73.60
72285;BME280;60220;53.552;10.092;2022-11-20T08:03:38;100767.78;;;3.12;73.37
72285;BME280;60220;53.552;10.092;2022-11-20T08:06:06;100761.22;;;2.84;74.43
72285;BME280;60220;53.552;10.092;2022-11-20T08:08:35;100764.53;;;3.24;73.54
72285;BME280;60220;53.552;10.092;2022-11-20T08:11:01;100760.06;;;3.15;74.42
72285;BME280;60220;53.552;10.092;2022-11-20T08:13:45;100768.09;;;3.30;72.82
72285;BME280;60220;53.552;10.092;2022-11-20T08:16:30;100762.97;;;3.33;72.70
72285;BME280;60220;53.552;10.092;2022-11-20T08:18:59;100765.69;;;2.91;73.54
72285;BME280;60220;53.552;10.092;2022-11-20T08:21:26;100764.13;;;3.01;73.34
72285;BME280;60220;53.552;10.092;2022-11-20T08:23:52;100768.13;;;3.32;71.28
72285;BME280;60220;53.552;10.092;2022-11-20T08:26:21;100765.56;;;3.35;72.39
72285;BME280;60220;53.552;10.092;2022-11-20T08:28:48;100765.06;;;3.59;72.67
72285;BME280;60220;53.552;10.092;2022-11-20T08:31:15;100762.25;;;3.42;72.31
72285;BME280;60220;53.552;10.092;2022-11-20T08:33:43;100770.19;;;3.54;71.63
72285;BME280;60220;53.552;10.092;2022-11-20T08:36:09;100763.81;;;3.34;72.33
72285;BME280;60220;53.552;10.092;2022-11-20T08:38:36;100768.63;;;3.11;72.24
72285;BME280;60220;53.552;10.092;2022-11-20T08:41:04;100770.41;;;3.14;73.14
72285;BME280;60220;53.552;10.092;2022-11-20T08:43:49;100772.06;;;3.09;72.84
72285;BME280;60220;53.552;10.092;2022-11-20T08:46:16;100776.19;;;3.50;74.48
72285;BME280;60220;53.552;10.092;2022-11-20T08:48:45;100774.41;;;3.46;73.80
72285;BME280;60220;53.552;10.092;2022-11-20T08:51:12;100774.00;;;3.22;72.43
72285;BME280;60220;53.552;10.092;2022-11-20T08:53:39;100774.03;;;3.79;71.30
72285;BME280;60220;53.552;10.092;2022-11-20T08:56:06;100785.03;;;3.61;71.55
72285;BME280;60220;53.552;10.092;2022-11-20T08:58:33;100785.88;;;3.60;71.30
72285;BME280;60220;53.552;10.092;2022-11-20T09:00:59;100774.41;;;3.46;71.37
72285;BME280;60220;53.552;10.092;2022-11-20T09:03:26;100777.81;;;3.98;70.62
72285;BME280;60220;53.552;10.092;2022-11-20T09:05:58;100779.63;;;3.49;71.47
72285;BME280;60220;53.552;10.092;2022-11-20T09:08:26;100782.47;;;3.64;73.42
72285;BME280;60220;53.552;10.092;2022-11-20T09:10:52;100773.66;;;3.55;72.23
72285;BME280;60220;53.552;10.092;2022-11-20T09:13:19;100771.53;;;3.29;72.99
72285;BME280;60220;53.552;10.092;2022-11-20T09:15:46;100774.25;;;3.37;72.18
72285;BME280;60220;53.552;10.092;2022-11-20T09:18:13;100778.44;;;3.84;72.15
72285;BME280;60220;53.552;10.092;2022-11-20T09:20:40;100773.13;;;3.75;71.60
72285;BME280;60220;53.552;10.092;2022-11-20T09:23:08;100763.25;;;3.52;74.00
72285;BME280;60220;53.552;10.092;2022-11-20T09:25:34;100769.34;;;3.54;73.32
72285;BME280;60220;53.552;10.092;2022-11-20T09:28:01;100776.56;;;3.74;75.69
72285;BME280;60220;53.552;10.092;2022-11-20T09:30:28;100781.91;;;4.47;79.63
72285;BME280;60220;53.552;10.092;2022-11-20T09:32:54;100782.38;;;4.17;78.30
72285;BME280;60220;53.552;10.092;2022-11-20T09:35:21;100772.09;;;3.63;75.83
72285;BME280;60220;53.552;10.092;2022-11-20T09:37:48;100766.06;;;3.65;74.83
72285;BME280;60220;53.552;10.092;2022-11-20T09:40:21;100765.88;;;3.53;74.24
72285;BME280;60220;53.552;10.092;2022-11-20T09:42:52;100766.53;;;3.99;73.26
72285;BME280;60220;53.552;10.092;2022-11-20T09:45:37;100767.66;;;3.57;77.97
72285;BME280;60220;53.552;10.092;2022-11-20T09:48:17;100769.41;;;3.06;79.23
72285;BME280;60220;53.552;10.092;2022-11-20T09:50:52;100775.56;;;3.63;76.25
72285;BME280;60220;53.552;10.092;2022-11-20T09:53:30;100778.44;;;3.29;77.27
72285;BME280;60220;53.552;10.092;2022-11-20T09:56:03;100775.88;;;3.30;76.32
72285;BME280;60220;53.552;10.092;2022-11-20T09:58:33;100773.09;;;3.20;77.38
72285;BME280;60220;53.552;10.092;2022-11-20T10:01:09;100777.72;;;3.39;76.97
72285;BME280;60220;53.552;10.092;2022-11-20T10:03:42;100779.22;;;3.77;76.57
72285;BME280;60220;53.552;10.092;2022-11-20T10:06:15;100784.38;;;3.22;76.73
72285;BME280;60220;53.552;10.092;2022-11-20T10:08:47;100776.03;;;2.90;77.60
72285;BME280;60220;53.552;10.092;2022-11-20T10:11:26;100780.03;;;3.21;76.76
72285;BME280;60220;53.552;10.092;2022-11-20T10:14:03;100779.22;;;3.25;76.16
72285;BME280;60220;53.552;10.092;2022-11-20T10:16:43;100773.63;;;3.00;76.99
72285;BME280;60220;53.552;10.092;2022-11-20T10:19:35;100773.16;;;3.24;75.16
72285;BME280;60220;53.552;10.092;2022-11-20T10:22:16;100771.72;;;3.99;73.08
72285;BME280;60220;53.552;10.092;2022-11-20T10:24:54;100759.75;;;3.48;73.89
72285;BME280;60220;53.552;10.092;2022-11-20T10:27:42;100757.16;;;3.48;74.45
72285;BME280;60220;53.552;10.092;2022-11-20T10:30:13;100767.69;;;4.19;73.00
72285;BME280;60220;53.552;10.092;2022-11-20T10:32:44;100763.50;;;3.67;74.69
72285;BME280;60220;53.552;10.092;2022-11-20T10:35:20;100765.19;;;3.65;74.47
72285;BME280;60220;53.552;10.092;2022-11-20T10:37:54;100755.97;;;3.83;72.51
72285;BME280;60220;53.552;10.092;2022-11-20T10:40:28;100764.78;;;3.96;72.13
72285;BME280;60220;53.552;10.092;2022-11-20T10:43:02;100759.00;;;4.17;71.87
72285;BME280;60220;53.552;10.092;2022-11-20T10:45:36;100756.78;;;4.47;72.09
72285;BME280;60220;53.552;10.092;2022-11-20T10:48:12;100747.97;;;4.33;72.13
72285;BME280;60220;53.552;10.092;2022-11-20T10:50:49;100743.63;;;4.33;71.33
72285;BME280;60220;53.552;10.092;2022-11-20T10:53:31;100751.31;;;4.26;71.43
72285;BME280;60220;53.552;10.092;2022-11-20T10:56:07;100753.72;;;4.11;71.27
72285;BME280;60220;53.552;10.092;2022-11-20T10:58:43;100750.63;;;3.74;72.30
72285;BME280;60220;53.552;10.092;2022-11-20T11:01:14;100750.03;;;4.61;70.92
72285;BME280;60220;53.552;10.092;2022-11-20T11:03:42;100753.16;;;4.33;71.81
72285;BME280;60220;53.552;10.092;2022-11-20T11:06:13;100753.19;;;3.71;71.08
72285;BME280;60220;53.552;10.092;2022-11-20T11:08:44;100750.66;;;3.76;71.48
72285;BME280;60220;53.552;10.092;2022-11-20T11:11:20;100740.75;;;3.51;72.33
72285;BME280;60220;53.552;10.092;2022-11-20T11:13:49;100736.63;;;4.26;72.26
72285;BME280;60220;53.552;10.092;2022-11-20T11:16:20;100735.56;;;4.14;70.81
72285;BME280;60220;53.552;10.092;2022-11-20T11:18:48;100730.31;;;4.08;70.72
72285;BME280;60220;53.552;10.092;2022-11-20T11:21:21;100745.13;;;4.15;72.41
72285;BME280;60220;53.552;10.092;2022-11-20T11:23:57;100732.38;;;4.33;70.51
72285;BME280;60220;53.552;10.092;2022-11-20T11:26:25;100726.78;;;4.03;69.47
72285;BME280;60220;53.552;10.092;2022-11-20T11:28:55;100721.41;;;3.87;71.26
72285;BME280;60220;53.552;10.092;2022-11-20T11:31:23;100724.31;;;4.12;70.46
72285;BME280;60220;53.552;10.092;2022-11-20T11:33:52;100723.31;;;4.04;70.42
72285;BME280;60220;53.552;10.092;2022-11-20T11:36:21;100725.53;;;3.73;70.06
72285;BME280;60220;53.552;10.092;2022-11-20T11:38:51;100729.94;;;3.80;70.85
72285;BME280;60220;53.552;10.092;2022-11-20T11:41:20;100731.47;;;3.66;70.64
72285;BME280;60220;53.552;10.092;2022-11-20T11:43:54;100728.50;;;4.01;69.70
72285;BME280;60220;53.552;10.092;2022-11-20T11:46:39;100725.75;;;3.90;72.17
72285;BME280;60220;53.552;10.092;2022-11-20T11:49:16;100721.91;;;4.27;70.15
72285;BME280;60220;53.552;10.092;2022-11-20T11:52:00;100726.13;;;4.17;69.85
72285;BME280;60220;53.552;10.092;2022-11-20T11:54:34;100728.84;;;4.28;70.34
72285;BME280;60220;53.552;10.092;2022-11-20T11:57:05;100722.97;;;3.76;70.46
72285;BME280;60220;53.552;10.092;2022-11-20T11:59:44;100725.34;;;3.61;70.79
72285;BME280;60220;53.552;10.092;2022-11-20T12:02:25;100723.50;;;4.16;67.67
72285;BME280;60220;53.552;10.092;2022-11-20T12:04:59;100721.59;;;4.03;68.53
72285;BME280;60220;53.552;10.092;2022-11-20T12:07:38;100722.97;;;3.76;68.79
72285;BME280;60220;53.552;10.092;2022-11-20T12:10:17;100717.94;;;4.59;68.21
72285;BME280;60220;53.552;10.092;2022-11-20T12:12:51;100713.31;;;4.34;67.39
72285;BME280;60220;53.552;10.092;2022-11-20T12:15:33;100722.78;;;4.27;67.99
72285;BME280;60220;53.552;10.092;2022-11-20T12:18:00;100721.06;;;4.31;68.60
72285;BME280;60220;53.552;10.092;2022-11-20T12:20:31;100719.88;;;4.05;66.85
72285;BME280;60220;53.552;10.092;2022-11-20T12:23:06;100709.69;;;4.20;67.24
72285;BME280;60220;53.552;10.092;2022-11-20T12:25:39;100717.06;;;3.88;67.98
72285;BME280;60220;53.552;10.092;2022-11-20T12:28:27;100718.78;;;3.89;68.41
72285;BME280;60220;53.552;10.092;2022-11-20T12:31:13;100713.03;;;3.50;67.98
72285;BME280;60220;53.552;10.092;2022-11-20T12:34:07;100706.31;;;4.27;66.32
72285;BME280;60220;53.552;10.092;2022-11-20T12:36:44;100706.94;;;4.09;67.74
72285;BME280;60220;53.552;10.092;2022-11-20T12:39:34;100685.88;;;4.60;65.85
72285;BME280;60220;53.552;10.092;2022-11-20T12:45:53;100687.06;;;4.93;65.72
72285;BME280;60220;53.552;10.092;2022-11-20T12:48:44;100672.19;;;4.80;65.79
72285;BME280;60220;53.552;10.092;2022-11-20T12:51:23;100676.78;;;5.06;63.81
72285;BME280;60220;53.552;10.092;2022-11-20T12:54:04;100677.38;;;4.76;65.80
72285;BME280;60220;53.552;10.092;2022-11-20T12:56:40;100680.97;;;4.88;66.33
72285;BME280;60220;53.552;10.092;2022-11-20T12:59:24;100674.44;;;4.45;67.04
72285;BME280;60220;53.552;10.092;2022-11-20T13:02:03;100675.56;;;4.66;65.34
72285;BME280;60220;53.552;10.092;2022-11-20T13:04:53;100677.91;;;4.44;67.30
72285;BME280;60220;53.552;10.092;2022-11-20T13:07:25;100677.38;;;4.76;65.07
72285;BME280;60220;53.552;10.092;2022-11-20T13:09:54;100684.13;;;4.56;65.70
72285;BME280;60220;53.552;10.092;2022-11-20T13:12:25;100691.94;;;4.58;66.03
72285;BME280;60220;53.552;10.092;2022-11-20T13:15:02;100689.06;;;4.35;65.77